sensor_id;sensor_type;location;lat;lon;timestamp;P1;durP1;ratioP1;P2;durP2;ratioP2
9763;SDS011;4921;43.214;27.936;2022-09-29T00:01:14;16.20;;;10.20;;
9763;SDS011;4921;43.214;27.936;2022-09-29T00:03:41;17.53;;;9.70;;
9763;SDS011;4921;43.214;27.936;2022-09-29T00:06:11;11.97;;;9.60;;
9763;SDS011;4921;43.214;27.936;2022-09-29T00:08:41;10.80;;;9.47;;
9763;SDS011;4921;43.214;27.936;2022-09-29T00:11:09;14.30;;;8.97;;
9763;SDS011;4921;43.214;27.936;2022-09-29T00:13:37;17.97;;;10.50;;
9763;SDS011;4921;43.214;27.936;2022-09-29T00:16:04;16.63;;;9.10;;
9763;SDS011;4921;43.214;27.936;2022-09-29T00:18:32;11.90;;;8.30;;
9763;SDS011;4921;43.214;27.936;2022-09-29T00:21:01;14.90;;;9.53;;
9763;SDS011;4921;43.214;27.936;2022-09-29T00:23:30;14.80;;;8.67;;
9763;SDS011;4921;43.214;27.936;2022-09-29T00:26:01;17.07;;;9.53;;
9763;SDS011;4921;43.214;27.936;2022-09-29T00:28:29;14.80;;;9.00;;
9763;SDS011;4921;43.214;27.936;2022-09-29T00:30:57;13.00;;;8.20;;
9763;SDS011;4921;43.214;27.936;2022-09-29T00:33:25;15.27;;;9.33;;
9763;SDS011;4921;43.214;27.936;2022-09-29T00:35:57;13.30;;;8.70;;
9763;SDS011;4921;43.214;27.936;2022-09-29T00:38:26;15.40;;;8.27;;
9763;SDS011;4921;43.214;27.936;2022-09-29T00:40:54;15.90;;;9.50;;
9763;SDS011;4921;43.214;27.936;2022-09-29T00:43:23;12.20;;;8.20;;
9763;SDS011;4921;43.214;27.936;2022-09-29T00:46:11;11.30;;;8.23;;
9763;SDS011;4921;43.214;27.936;2022-09-29T00:48:39;12.60;;;8.10;;
9763;SDS011;4921;43.214;27.936;2022-09-29T00:51:06;11.83;;;8.40;;
9763;SDS011;4921;43.214;27.936;2022-09-29T00:53:34;12.93;;;8.83;;
9763;SDS011;4921;43.214;27.936;2022-09-29T00:56:02;12.80;;;8.80;;
9763;SDS011;4921;43.214;27.936;2022-09-29T00:58:33;13.40;;;8.93;;
9763;SDS011;4921;43.214;27.936;2022-09-29T01:01:03;11.97;;;9.00;;
9763;SDS011;4921;43.214;27.936;2022-09-29T01:03:32;10.77;;;8.60;;
9763;SDS011;4921;43.214;27.936;2022-09-29T01:06:04;9.23;;;8.23;;
9763;SDS011;4921;43.214;27.936;2022-09-29T01:08:36;11.60;;;8.83;;
9763;SDS011;4921;43.214;27.936;2022-09-29T01:11:07;11.90;;;8.73;;
9763;SDS011;4921;43.214;27.936;2022-09-29T01:13:37;11.63;;;9.20;;
9763;SDS011;4921;43.214;27.936;2022-09-29T01:16:07;10.77;;;9.03;;
9763;SDS011;4921;43.214;27.936;2022-09-29T01:18:34;10.00;;;8.67;;
9763;SDS011;4921;43.214;27.936;2022-09-29T01:21:04;12.43;;;8.63;;
9763;SDS011;4921;43.214;27.936;2022-09-29T01:23:44;12.10;;;9.37;;
9763;SDS011;4921;43.214;27.936;2022-09-29T01:26:35;14.83;;;9.70;;
9763;SDS011;4921;43.214;27.936;2022-09-29T01:32:23;14.97;;;11.50;;
9763;SDS011;4921;43.214;27.936;2022-09-29T01:35:11;17.23;;;11.83;;
9763;SDS011;4921;43.214;27.936;2022-09-29T01:37:47;16.47;;;10.87;;
9763;SDS011;4921;43.214;27.936;2022-09-29T01:40:25;16.20;;;12.33;;
9763;SDS011;4921;43.214;27.936;2022-09-29T01:43:01;17.43;;;12.07;;
9763;SDS011;4921;43.214;27.936;2022-09-29T01:45:32;16.93;;;11.43;;
9763;SDS011;4921;43.214;27.936;2022-09-29T01:48:04;19.60;;;12.87;;
9763;SDS011;4921;43.214;27.936;2022-09-29T01:50:35;18.47;;;12.87;;
9763;SDS011;4921;43.214;27.936;2022-09-29T01:53:07;16.10;;;11.50;;
9763;SDS011;4921;43.214;27.936;2022-09-29T01:55:40;13.70;;;11.43;;
9763;SDS011;4921;43.214;27.936;2022-09-29T01:58:12;16.13;;;11.57;;
9763;SDS011;4921;43.214;27.936;2022-09-29T02:00:44;14.03;;;11.30;;
9763;SDS011;4921;43.214;27.936;2022-09-29T02:03:17;14.93;;;12.03;;
9763;SDS011;4921;43.214;27.936;2022-09-29T02:05:51;17.93;;;10.73;;
9763;SDS011;4921;43.214;27.936;2022-09-29T02:08:23;12.47;;;11.10;;
9763;SDS011;4921;43.214;27.936;2022-09-29T02:10:58;16.97;;;11.30;;
9763;SDS011;4921;43.214;27.936;2022-09-29T02:13:29;15.20;;;10.27;;
9763;SDS011;4921;43.214;27.936;2022-09-29T02:15:59;14.53;;;11.07;;
9763;SDS011;4921;43.214;27.936;2022-09-29T02:18:31;16.60;;;11.03;;
9763;SDS011;4921;43.214;27.936;2022-09-29T02:21:07;17.37;;;10.73;;
9763;SDS011;4921;43.214;27.936;2022-09-29T02:23:34;16.33;;;10.63;;
9763;SDS011;4921;43.214;27.936;2022-09-29T02:26:02;14.70;;;10.50;;
9763;SDS011;4921;43.214;27.936;2022-09-29T02:28:29;15.40;;;10.40;;
9763;SDS011;4921;43.214;27.936;2022-09-29T02:30:56;14.57;;;10.47;;
9763;SDS011;4921;43.214;27.936;2022-09-29T02:33:24;16.33;;;11.13;;
9763;SDS011;4921;43.214;27.936;2022-09-29T02:35:55;16.50;;;11.03;;
9763;SDS011;4921;43.214;27.936;2022-09-29T02:38:32;14.50;;;10.63;;
9763;SDS011;4921;43.214;27.936;2022-09-29T02:41:12;16.60;;;10.73;;
9763;SDS011;4921;43.214;27.936;2022-09-29T02:44:00;12.93;;;10.03;;
9763;SDS011;4921;43.214;27.936;2022-09-29T02:46:42;15.87;;;10.93;;
9763;SDS011;4921;43.214;27.936;2022-09-29T02:49:27;10.47;;;9.37;;
9763;SDS011;4921;43.214;27.936;2022-09-29T02:52:08;14.07;;;9.83;;
9763;SDS011;4921;43.214;27.936;2022-09-29T02:54:46;14.00;;;10.60;;
9763;SDS011;4921;43.214;27.936;2022-09-29T02:57:23;11.87;;;10.60;;
9763;SDS011;4921;43.214;27.936;2022-09-29T02:59:58;14.23;;;10.40;;
9763;SDS011;4921;43.214;27.936;2022-09-29T03:02:32;11.77;;;10.10;;
9763;SDS011;4921;43.214;27.936;2022-09-29T03:05:00;12.80;;;10.07;;
9763;SDS011;4921;43.214;27.936;2022-09-29T03:07:28;13.27;;;11.03;;
9763;SDS011;4921;43.214;27.936;2022-09-29T03:09:55;11.87;;;10.57;;
9763;SDS011;4921;43.214;27.936;2022-09-29T03:12:22;15.50;;;10.57;;
9763;SDS011;4921;43.214;27.936;2022-09-29T03:14:49;14.37;;;11.40;;
9763;SDS011;4921;43.214;27.936;2022-09-29T03:17:16;13.20;;;11.00;;
9763;SDS011;4921;43.214;27.936;2022-09-29T03:19:43;14.97;;;11.37;;
9763;SDS011;4921;43.214;27.936;2022-09-29T03:22:10;13.00;;;10.50;;
9763;SDS011;4921;43.214;27.936;2022-09-29T03:24:38;14.37;;;10.73;;
9763;SDS011;4921;43.214;27.936;2022-09-29T03:27:06;13.63;;;11.63;;
9763;SDS011;4921;43.214;27.936;2022-09-29T03:29:34;18.57;;;11.60;;
9763;SDS011;4921;43.214;27.936;2022-09-29T03:32:01;20.73;;;14.77;;
9763;SDS011;4921;43.214;27.936;2022-09-29T03:34:28;14.20;;;11.70;;
9763;SDS011;4921;43.214;27.936;2022-09-29T03:36:56;14.67;;;12.70;;
9763;SDS011;4921;43.214;27.936;2022-09-29T03:39:23;18.07;;;12.40;;
9763;SDS011;4921;43.214;27.936;2022-09-29T03:41:51;49.30;;;16.40;;
9763;SDS011;4921;43.214;27.936;2022-09-29T03:44:18;24.87;;;13.23;;
9763;SDS011;4921;43.214;27.936;2022-09-29T03:46:45;25.90;;;14.57;;
9763;SDS011;4921;43.214;27.936;2022-09-29T03:49:12;19.30;;;13.07;;
9763;SDS011;4921;43.214;27.936;2022-09-29T03:51:40;22.33;;;13.37;;
9763;SDS011;4921;43.214;27.936;2022-09-29T03:54:07;25.17;;;13.50;;
9763;SDS011;4921;43.214;27.936;2022-09-29T03:56:35;17.37;;;13.20;;
9763;SDS011;4921;43.214;27.936;2022-09-29T03:59:04;21.67;;;14.03;;
9763;SDS011;4921;43.214;27.936;2022-09-29T04:01:33;22.50;;;14.73;;
9763;SDS011;4921;43.214;27.936;2022-09-29T04:07:23;22.60;;;14.03;;
9763;SDS011;4921;43.214;27.936;2022-09-29T04:13:12;20.10;;;13.80;;
9763;SDS011;4921;43.214;27.936;2022-09-29T04:15:40;18.97;;;13.57;;
9763;SDS011;4921;43.214;27.936;2022-09-29T04:18:07;19.97;;;13.07;;
9763;SDS011;4921;43.214;27.936;2022-09-29T04:20:36;17.93;;;14.03;;
9763;SDS011;4921;43.214;27.936;2022-09-29T04:26:24;17.30;;;12.73;;
9763;SDS011;4921;43.214;27.936;2022-09-29T04:28:51;16.93;;;12.83;;
9763;SDS011;4921;43.214;27.936;2022-09-29T04:31:20;17.33;;;12.87;;
9763;SDS011;4921;43.214;27.936;2022-09-29T04:33:46;16.93;;;13.17;;
9763;SDS011;4921;43.214;27.936;2022-09-29T04:36:13;20.63;;;13.53;;
9763;SDS011;4921;43.214;27.936;2022-09-29T04:38:40;20.67;;;13.40;;
9763;SDS011;4921;43.214;27.936;2022-09-29T04:41:07;18.00;;;13.50;;
9763;SDS011;4921;43.214;27.936;2022-09-29T04:43:34;14.33;;;12.20;;
9763;SDS011;4921;43.214;27.936;2022-09-29T04:46:04;21.97;;;13.77;;
9763;SDS011;4921;43.214;27.936;2022-09-29T04:48:34;21.80;;;13.43;;
9763;SDS011;4921;43.214;27.936;2022-09-29T04:51:02;27.03;;;14.10;;
9763;SDS011;4921;43.214;27.936;2022-09-29T04:53:29;29.43;;;14.70;;
9763;SDS011;4921;43.214;27.936;2022-09-29T04:55:56;22.67;;;13.73;;
9763;SDS011;4921;43.214;27.936;2022-09-29T04:58:23;24.37;;;14.60;;
9763;SDS011;4921;43.214;27.936;2022-09-29T05:00:50;24.07;;;14.10;;
9763;SDS011;4921;43.214;27.936;2022-09-29T05:03:17;21.07;;;13.57;;
9763;SDS011;4921;43.214;27.936;2022-09-29T05:05:45;19.17;;;13.93;;
9763;SDS011;4921;43.214;27.936;2022-09-29T05:08:12;24.93;;;14.50;;
9763;SDS011;4921;43.214;27.936;2022-09-29T05:10:39;28.60;;;15.27;;
9763;SDS011;4921;43.214;27.936;2022-09-29T05:13:07;29.50;;;16.37;;
9763;SDS011;4921;43.214;27.936;2022-09-29T05:15:34;23.87;;;16.03;;
9763;SDS011;4921;43.214;27.936;2022-09-29T05:18:01;26.37;;;15.53;;
9763;SDS011;4921;43.214;27.936;2022-09-29T05:20:30;25.63;;;17.07;;
9763;SDS011;4921;43.214;27.936;2022-09-29T05:22:58;34.47;;;17.50;;
9763;SDS011;4921;43.214;27.936;2022-09-29T05:25:25;28.10;;;18.20;;
9763;SDS011;4921;43.214;27.936;2022-09-29T05:27:52;33.63;;;16.87;;
9763;SDS011;4921;43.214;27.936;2022-09-29T05:30:19;36.30;;;16.63;;
9763;SDS011;4921;43.214;27.936;2022-09-29T05:32:46;25.73;;;16.13;;
9763;SDS011;4921;43.214;27.936;2022-09-29T05:35:14;26.17;;;15.83;;
9763;SDS011;4921;43.214;27.936;2022-09-29T05:37:41;31.77;;;15.80;;
9763;SDS011;4921;43.214;27.936;2022-09-29T05:40:09;33.03;;;16.07;;
9763;SDS011;4921;43.214;27.936;2022-09-29T05:42:36;32.53;;;16.60;;
9763;SDS011;4921;43.214;27.936;2022-09-29T05:45:04;28.73;;;16.13;;
9763;SDS011;4921;43.214;27.936;2022-09-29T05:47:33;24.20;;;15.67;;
9763;SDS011;4921;43.214;27.936;2022-09-29T05:50:00;28.63;;;14.80;;
9763;SDS011;4921;43.214;27.936;2022-09-29T05:52:28;23.93;;;15.33;;
9763;SDS011;4921;43.214;27.936;2022-09-29T05:54:55;23.00;;;15.43;;
9763;SDS011;4921;43.214;27.936;2022-09-29T05:57:23;27.20;;;14.93;;
9763;SDS011;4921;43.214;27.936;2022-09-29T05:59:50;22.43;;;14.83;;
9763;SDS011;4921;43.214;27.936;2022-09-29T06:02:17;32.57;;;16.53;;
9763;SDS011;4921;43.214;27.936;2022-09-29T06:04:44;22.57;;;15.37;;
9763;SDS011;4921;43.214;27.936;2022-09-29T06:07:11;23.53;;;15.60;;
9763;SDS011;4921;43.214;27.936;2022-09-29T06:09:38;23.97;;;15.03;;
9763;SDS011;4921;43.214;27.936;2022-09-29T06:12:05;25.30;;;13.20;;
9763;SDS011;4921;43.214;27.936;2022-09-29T06:14:33;21.90;;;12.37;;
9763;SDS011;4921;43.214;27.936;2022-09-29T06:17:00;17.73;;;10.67;;
9763;SDS011;4921;43.214;27.936;2022-09-29T06:19:27;17.50;;;9.63;;
9763;SDS011;4921;43.214;27.936;2022-09-29T06:21:54;13.87;;;9.57;;
9763;SDS011;4921;43.214;27.936;2022-09-29T06:24:20;17.23;;;7.30;;
9763;SDS011;4921;43.214;27.936;2022-09-29T06:26:47;13.70;;;5.97;;
9763;SDS011;4921;43.214;27.936;2022-09-29T06:29:14;9.27;;;5.70;;
9763;SDS011;4921;43.214;27.936;2022-09-29T06:31:42;15.33;;;6.50;;
9763;SDS011;4921;43.214;27.936;2022-09-29T06:34:09;10.77;;;6.07;;
9763;SDS011;4921;43.214;27.936;2022-09-29T06:36:37;7.17;;;3.87;;
9763;SDS011;4921;43.214;27.936;2022-09-29T06:39:24;5.80;;;2.93;;
9763;SDS011;4921;43.214;27.936;2022-09-29T06:41:51;5.10;;;2.77;;
9763;SDS011;4921;43.214;27.936;2022-09-29T06:44:19;20.67;;;11.90;;
9763;SDS011;4921;43.214;27.936;2022-09-29T06:46:49;21.27;;;14.67;;
9763;SDS011;4921;43.214;27.936;2022-09-29T06:49:16;18.87;;;13.50;;
9763;SDS011;4921;43.214;27.936;2022-09-29T06:51:44;20.77;;;14.63;;
9763;SDS011;4921;43.214;27.936;2022-09-29T06:54:11;19.40;;;13.60;;
9763;SDS011;4921;43.214;27.936;2022-09-29T06:56:39;24.57;;;14.50;;
9763;SDS011;4921;43.214;27.936;2022-09-29T06:59:06;19.37;;;14.50;;
9763;SDS011;4921;43.214;27.936;2022-09-29T07:01:33;20.83;;;15.10;;
9763;SDS011;4921;43.214;27.936;2022-09-29T07:04:01;19.63;;;15.13;;
9763;SDS011;4921;43.214;27.936;2022-09-29T07:06:28;15.80;;;13.07;;
9763;SDS011;4921;43.214;27.936;2022-09-29T07:08:56;13.67;;;11.20;;
9763;SDS011;4921;43.214;27.936;2022-09-29T07:11:25;11.30;;;9.70;;
9763;SDS011;4921;43.214;27.936;2022-09-29T07:13:52;17.00;;;9.70;;
9763;SDS011;4921;43.214;27.936;2022-09-29T07:16:20;7.97;;;6.57;;
9763;SDS011;4921;43.214;27.936;2022-09-29T07:18:48;8.33;;;5.70;;
9763;SDS011;4921;43.214;27.936;2022-09-29T07:21:17;5.63;;;5.10;;
9763;SDS011;4921;43.214;27.936;2022-09-29T07:23:46;4.67;;;4.20;;
9763;SDS011;4921;43.214;27.936;2022-09-29T07:26:13;4.47;;;4.07;;
9763;SDS011;4921;43.214;27.936;2022-09-29T07:28:41;5.47;;;4.00;;
9763;SDS011;4921;43.214;27.936;2022-09-29T07:31:09;4.57;;;4.17;;
9763;SDS011;4921;43.214;27.936;2022-09-29T07:33:37;4.77;;;4.37;;
9763;SDS011;4921;43.214;27.936;2022-09-29T07:36:04;6.70;;;3.70;;
9763;SDS011;4921;43.214;27.936;2022-09-29T07:38:33;5.17;;;4.07;;
9763;SDS011;4921;43.214;27.936;2022-09-29T07:41:00;4.57;;;4.17;;
9763;SDS011;4921;43.214;27.936;2022-09-29T07:43:28;4.73;;;4.10;;
9763;SDS011;4921;43.214;27.936;2022-09-29T07:45:56;3.70;;;3.50;;
9763;SDS011;4921;43.214;27.936;2022-09-29T07:48:24;4.10;;;3.80;;
9763;SDS011;4921;43.214;27.936;2022-09-29T07:50:51;6.67;;;3.80;;
9763;SDS011;4921;43.214;27.936;2022-09-29T07:53:18;5.63;;;4.53;;
9763;SDS011;4921;43.214;27.936;2022-09-29T07:55:47;4.07;;;3.70;;
9763;SDS011;4921;43.214;27.936;2022-09-29T07:58:14;4.67;;;4.20;;
9763;SDS011;4921;43.214;27.936;2022-09-29T08:00:41;3.93;;;3.70;;
9763;SDS011;4921;43.214;27.936;2022-09-29T08:03:08;4.63;;;3.77;;
9763;SDS011;4921;43.214;27.936;2022-09-29T08:05:35;4.67;;;3.53;;
9763;SDS011;4921;43.214;27.936;2022-09-29T08:08:03;4.03;;;3.70;;
9763;SDS011;4921;43.214;27.936;2022-09-29T08:10:31;3.70;;;3.23;;
9763;SDS011;4921;43.214;27.936;2022-09-29T08:13:01;3.67;;;2.80;;
9763;SDS011;4921;43.214;27.936;2022-09-29T08:15:27;4.53;;;2.67;;
9763;SDS011;4921;43.214;27.936;2022-09-29T08:17:54;3.00;;;2.43;;
9763;SDS011;4921;43.214;27.936;2022-09-29T08:20:22;3.00;;;2.60;;
9763;SDS011;4921;43.214;27.936;2022-09-29T08:22:50;3.60;;;3.07;;
9763;SDS011;4921;43.214;27.936;2022-09-29T08:25:20;3.17;;;2.57;;
9763;SDS011;4921;43.214;27.936;2022-09-29T08:27:47;6.27;;;3.00;;
9763;SDS011;4921;43.214;27.936;2022-09-29T08:30:15;3.77;;;2.77;;
9763;SDS011;4921;43.214;27.936;2022-09-29T08:32:42;4.90;;;2.67;;
9763;SDS011;4921;43.214;27.936;2022-09-29T08:35:10;4.47;;;2.43;;
9763;SDS011;4921;43.214;27.936;2022-09-29T08:37:37;3.20;;;2.90;;
9763;SDS011;4921;43.214;27.936;2022-09-29T08:40:04;6.97;;;3.20;;
9763;SDS011;4921;43.214;27.936;2022-09-29T08:42:36;4.33;;;2.70;;
9763;SDS011;4921;43.214;27.936;2022-09-29T08:45:13;3.53;;;2.70;;
9763;SDS011;4921;43.214;27.936;2022-09-29T08:47:48;6.73;;;3.03;;
9763;SDS011;4921;43.214;27.936;2022-09-29T08:50:19;5.10;;;2.70;;
9763;SDS011;4921;43.214;27.936;2022-09-29T08:52:53;4.53;;;2.70;;
9763;SDS011;4921;43.214;27.936;2022-09-29T08:55:25;5.67;;;2.73;;
9763;SDS011;4921;43.214;27.936;2022-09-29T08:57:59;3.40;;;2.53;;
9763;SDS011;4921;43.214;27.936;2022-09-29T09:00:32;6.43;;;2.80;;
9763;SDS011;4921;43.214;27.936;2022-09-29T09:03:11;3.67;;;2.40;;
9763;SDS011;4921;43.214;27.936;2022-09-29T09:05:55;4.37;;;3.03;;
9763;SDS011;4921;43.214;27.936;2022-09-29T09:08:42;4.97;;;2.77;;
9763;SDS011;4921;43.214;27.936;2022-09-29T09:11:26;4.47;;;2.80;;
9763;SDS011;4921;43.214;27.936;2022-09-29T09:14:07;5.50;;;3.20;;
9763;SDS011;4921;43.214;27.936;2022-09-29T09:16:51;5.60;;;3.13;;
9763;SDS011;4921;43.214;27.936;2022-09-29T09:19:29;6.53;;;3.30;;
9763;SDS011;4921;43.214;27.936;2022-09-29T09:22:12;7.17;;;3.80;;
9763;SDS011;4921;43.214;27.936;2022-09-29T09:24:47;7.00;;;3.40;;
9763;SDS011;4921;43.214;27.936;2022-09-29T09:27:19;7.00;;;3.77;;
9763;SDS011;4921;43.214;27.936;2022-09-29T09:29:52;6.83;;;4.17;;
9763;SDS011;4921;43.214;27.936;2022-09-29T09:32:28;11.43;;;4.10;;
9763;SDS011;4921;43.214;27.936;2022-09-29T09:34:57;5.43;;;3.40;;
9763;SDS011;4921;43.214;27.936;2022-09-29T09:37:31;9.80;;;4.20;;
9763;SDS011;4921;43.214;27.936;2022-09-29T09:40:03;7.70;;;3.80;;
9763;SDS011;4921;43.214;27.936;2022-09-29T09:42:37;7.17;;;3.80;;
9763;SDS011;4921;43.214;27.936;2022-09-29T09:45:09;7.70;;;3.70;;
9763;SDS011;4921;43.214;27.936;2022-09-29T09:47:41;9.87;;;3.87;;
9763;SDS011;4921;43.214;27.936;2022-09-29T09:50:15;10.60;;;4.00;;
9763;SDS011;4921;43.214;27.936;2022-09-29T09:52:46;7.43;;;3.83;;
9763;SDS011;4921;43.214;27.936;2022-09-29T09:55:17;8.93;;;3.87;;
9763;SDS011;4921;43.214;27.936;2022-09-29T09:57:48;9.87;;;4.20;;
9763;SDS011;4921;43.214;27.936;2022-09-29T10:00:27;8.13;;;3.87;;
9763;SDS011;4921;43.214;27.936;2022-09-29T10:03:00;5.97;;;3.70;;
9763;SDS011;4921;43.214;27.936;2022-09-29T10:05:31;9.60;;;4.50;;
9763;SDS011;4921;43.214;27.936;2022-09-29T10:08:01;11.30;;;3.90;;
9763;SDS011;4921;43.214;27.936;2022-09-29T10:10:29;9.00;;;3.97;;
9763;SDS011;4921;43.214;27.936;2022-09-29T10:12:57;9.20;;;3.80;;
9763;SDS011;4921;43.214;27.936;2022-09-29T10:15:29;8.10;;;4.37;;
9763;SDS011;4921;43.214;27.936;2022-09-29T10:18:02;7.50;;;4.33;;
9763;SDS011;4921;43.214;27.936;2022-09-29T10:20:33;17.67;;;5.00;;
9763;SDS011;4921;43.214;27.936;2022-09-29T10:23:23;9.17;;;4.90;;
9763;SDS011;4921;43.214;27.936;2022-09-29T10:25:56;8.87;;;4.70;;
9763;SDS011;4921;43.214;27.936;2022-09-29T10:28:27;7.03;;;4.10;;
9763;SDS011;4921;43.214;27.936;2022-09-29T10:31:02;8.70;;;4.17;;
9763;SDS011;4921;43.214;27.936;2022-09-29T10:33:46;14.03;;;5.10;;
9763;SDS011;4921;43.214;27.936;2022-09-29T10:36:16;8.63;;;4.70;;
9763;SDS011;4921;43.214;27.936;2022-09-29T10:38:46;10.43;;;4.63;;
9763;SDS011;4921;43.214;27.936;2022-09-29T10:41:15;8.27;;;4.40;;
9763;SDS011;4921;43.214;27.936;2022-09-29T10:43:44;12.23;;;4.83;;
9763;SDS011;4921;43.214;27.936;2022-09-29T10:49:14;12.23;;;4.50;;
9763;SDS011;4921;43.214;27.936;2022-09-29T10:51:47;6.33;;;4.40;;
9763;SDS011;4921;43.214;27.936;2022-09-29T10:54:20;9.87;;;4.40;;
9763;SDS011;4921;43.214;27.936;2022-09-29T10:56:50;9.93;;;4.17;;
9763;SDS011;4921;43.214;27.936;2022-09-29T10:59:19;9.93;;;4.67;;
9763;SDS011;4921;43.214;27.936;2022-09-29T11:01:48;16.87;;;10.93;;
9763;SDS011;4921;43.214;27.936;2022-09-29T11:04:19;10.07;;;5.03;;
9763;SDS011;4921;43.214;27.936;2022-09-29T11:06:49;9.90;;;4.40;;
9763;SDS011;4921;43.214;27.936;2022-09-29T11:09:27;6.73;;;4.10;;
9763;SDS011;4921;43.214;27.936;2022-09-29T11:11:56;7.27;;;4.00;;
9763;SDS011;4921;43.214;27.936;2022-09-29T11:14:26;7.40;;;3.93;;
9763;SDS011;4921;43.214;27.936;2022-09-29T11:16:55;8.63;;;4.40;;
9763;SDS011;4921;43.214;27.936;2022-09-29T11:19:25;9.97;;;4.50;;
9763;SDS011;4921;43.214;27.936;2022-09-29T11:24:56;7.63;;;4.50;;
9763;SDS011;4921;43.214;27.936;2022-09-29T11:27:38;8.77;;;4.27;;
9763;SDS011;4921;43.214;27.936;2022-09-29T11:30:19;11.93;;;4.70;;
9763;SDS011;4921;43.214;27.936;2022-09-29T11:33:01;10.80;;;4.93;;
9763;SDS011;4921;43.214;27.936;2022-09-29T11:35:47;10.50;;;4.13;;
9763;SDS011;4921;43.214;27.936;2022-09-29T11:41:11;8.87;;;4.83;;
9763;SDS011;4921;43.214;27.936;2022-09-29T11:43:52;8.83;;;4.93;;
9763;SDS011;4921;43.214;27.936;2022-09-29T11:46:28;12.50;;;5.13;;
9763;SDS011;4921;43.214;27.936;2022-09-29T11:52:12;9.47;;;4.80;;
9763;SDS011;4921;43.214;27.936;2022-09-29T11:54:57;16.10;;;5.50;;
9763;SDS011;4921;43.214;27.936;2022-09-29T11:57:41;10.40;;;4.87;;
9763;SDS011;4921;43.214;27.936;2022-09-29T12:00:15;10.63;;;4.77;;
9763;SDS011;4921;43.214;27.936;2022-09-29T12:05:43;13.33;;;5.60;;
9763;SDS011;4921;43.214;27.936;2022-09-29T12:08:23;12.27;;;5.77;;
9763;SDS011;4921;43.214;27.936;2022-09-29T12:11:02;12.67;;;5.90;;
9763;SDS011;4921;43.214;27.936;2022-09-29T14:47:41;13.20;;;8.27;;
9763;SDS011;4921;43.214;27.936;2022-09-29T14:50:33;17.37;;;8.50;;
9763;SDS011;4921;43.214;27.936;2022-09-29T14:53:31;16.00;;;8.50;;
9763;SDS011;4921;43.214;27.936;2022-09-29T14:56:15;13.43;;;8.40;;
9763;SDS011;4921;43.214;27.936;2022-09-29T14:58:53;13.33;;;8.30;;
9763;SDS011;4921;43.214;27.936;2022-09-29T15:01:31;11.03;;;7.90;;
9763;SDS011;4921;43.214;27.936;2022-09-29T15:04:05;12.40;;;8.30;;
9763;SDS011;4921;43.214;27.936;2022-09-29T15:06:44;11.17;;;7.53;;
9763;SDS011;4921;43.214;27.936;2022-09-29T15:09:14;30.20;;;20.77;;
9763;SDS011;4921;43.214;27.936;2022-09-29T15:11:43;14.60;;;8.90;;
9763;SDS011;4921;43.214;27.936;2022-09-29T15:14:21;11.97;;;7.93;;
9763;SDS011;4921;43.214;27.936;2022-09-29T15:16:53;13.07;;;8.40;;
9763;SDS011;4921;43.214;27.936;2022-09-29T15:19:42;11.60;;;8.87;;
9763;SDS011;4921;43.214;27.936;2022-09-29T15:25:24;21.70;;;11.10;;
9763;SDS011;4921;43.214;27.936;2022-09-29T15:27:55;12.97;;;9.80;;
9763;SDS011;4921;43.214;27.936;2022-09-29T15:30:25;18.30;;;10.73;;
9763;SDS011;4921;43.214;27.936;2022-09-29T15:32:53;12.37;;;9.30;;
9763;SDS011;4921;43.214;27.936;2022-09-29T15:35:37;12.87;;;9.90;;
9763;SDS011;4921;43.214;27.936;2022-09-29T15:38:15;16.40;;;10.47;;
9763;SDS011;4921;43.214;27.936;2022-09-29T15:40:57;17.70;;;9.90;;
9763;SDS011;4921;43.214;27.936;2022-09-29T15:43:26;15.20;;;10.77;;
9763;SDS011;4921;43.214;27.936;2022-09-29T15:45:57;14.37;;;11.10;;
9763;SDS011;4921;43.214;27.936;2022-09-29T15:48:27;13.13;;;9.53;;
9763;SDS011;4921;43.214;27.936;2022-09-29T15:50:56;14.03;;;10.37;;
9763;SDS011;4921;43.214;27.936;2022-09-29T15:53:26;16.37;;;10.93;;
9763;SDS011;4921;43.214;27.936;2022-09-29T15:55:55;13.80;;;10.50;;
9763;SDS011;4921;43.214;27.936;2022-09-29T15:58:35;15.87;;;7.33;;
9763;SDS011;4921;43.214;27.936;2022-09-29T16:01:10;14.23;;;9.50;;
9763;SDS011;4921;43.214;27.936;2022-09-29T16:03:39;10.63;;;7.70;;
9763;SDS011;4921;43.214;27.936;2022-09-29T16:06:15;12.70;;;8.40;;
9763;SDS011;4921;43.214;27.936;2022-09-29T16:08:47;13.13;;;9.60;;
9763;SDS011;4921;43.214;27.936;2022-09-29T16:11:20;13.47;;;9.70;;
9763;SDS011;4921;43.214;27.936;2022-09-29T16:13:51;17.90;;;10.93;;
9763;SDS011;4921;43.214;27.936;2022-09-29T16:16:24;17.87;;;10.33;;
9763;SDS011;4921;43.214;27.936;2022-09-29T16:18:57;13.13;;;10.87;;
9763;SDS011;4921;43.214;27.936;2022-09-29T16:21:33;15.17;;;10.60;;
9763;SDS011;4921;43.214;27.936;2022-09-29T16:24:03;13.23;;;11.13;;
9763;SDS011;4921;43.214;27.936;2022-09-29T16:26:36;13.70;;;10.67;;
9763;SDS011;4921;43.214;27.936;2022-09-29T16:29:05;15.80;;;11.30;;
9763;SDS011;4921;43.214;27.936;2022-09-29T16:31:48;15.87;;;11.47;;
9763;SDS011;4921;43.214;27.936;2022-09-29T16:34:27;15.20;;;11.30;;
9763;SDS011;4921;43.214;27.936;2022-09-29T16:36:58;14.97;;;10.90;;
9763;SDS011;4921;43.214;27.936;2022-09-29T16:39:28;15.67;;;11.93;;
9763;SDS011;4921;43.214;27.936;2022-09-29T16:41:58;13.63;;;11.77;;
9763;SDS011;4921;43.214;27.936;2022-09-29T16:44:30;13.43;;;10.90;;
9763;SDS011;4921;43.214;27.936;2022-09-29T16:46:59;14.23;;;11.43;;
9763;SDS011;4921;43.214;27.936;2022-09-29T16:49:30;14.73;;;12.70;;
9763;SDS011;4921;43.214;27.936;2022-09-29T16:52:02;17.63;;;12.03;;
9763;SDS011;4921;43.214;27.936;2022-09-29T16:54:42;19.60;;;11.70;;
9763;SDS011;4921;43.214;27.936;2022-09-29T16:57:23;13.87;;;11.47;;
9763;SDS011;4921;43.214;27.936;2022-09-29T16:59:52;18.70;;;12.57;;
9763;SDS011;4921;43.214;27.936;2022-09-29T17:02:20;16.77;;;12.83;;
9763;SDS011;4921;43.214;27.936;2022-09-29T17:04:48;17.70;;;12.47;;
9763;SDS011;4921;43.214;27.936;2022-09-29T17:07:18;16.73;;;13.07;;
9763;SDS011;4921;43.214;27.936;2022-09-29T17:09:47;13.87;;;12.27;;
9763;SDS011;4921;43.214;27.936;2022-09-29T17:12:18;16.23;;;12.00;;
9763;SDS011;4921;43.214;27.936;2022-09-29T17:14:46;15.60;;;11.73;;
9763;SDS011;4921;43.214;27.936;2022-09-29T17:17:15;15.10;;;11.90;;
9763;SDS011;4921;43.214;27.936;2022-09-29T17:19:46;16.53;;;12.40;;
9763;SDS011;4921;43.214;27.936;2022-09-29T17:22:21;18.80;;;12.77;;
9763;SDS011;4921;43.214;27.936;2022-09-29T17:24:55;15.47;;;11.97;;
9763;SDS011;4921;43.214;27.936;2022-09-29T17:27:22;19.03;;;12.23;;
9763;SDS011;4921;43.214;27.936;2022-09-29T17:30:08;16.00;;;11.77;;
9763;SDS011;4921;43.214;27.936;2022-09-29T17:32:36;16.73;;;12.13;;
9763;SDS011;4921;43.214;27.936;2022-09-29T17:35:08;16.53;;;11.60;;
9763;SDS011;4921;43.214;27.936;2022-09-29T17:37:38;21.30;;;12.67;;
9763;SDS011;4921;43.214;27.936;2022-09-29T17:40:11;18.13;;;12.60;;
9763;SDS011;4921;43.214;27.936;2022-09-29T17:42:44;21.13;;;13.10;;
9763;SDS011;4921;43.214;27.936;2022-09-29T17:45:12;17.03;;;12.03;;
9763;SDS011;4921;43.214;27.936;2022-09-29T17:47:40;18.10;;;12.73;;
9763;SDS011;4921;43.214;27.936;2022-09-29T17:50:11;18.57;;;12.27;;
9763;SDS011;4921;43.214;27.936;2022-09-29T17:52:47;16.27;;;12.43;;
9763;SDS011;4921;43.214;27.936;2022-09-29T17:55:13;17.77;;;14.27;;
9763;SDS011;4921;43.214;27.936;2022-09-29T17:57:41;19.10;;;13.47;;
9763;SDS011;4921;43.214;27.936;2022-09-29T18:00:15;17.10;;;11.70;;
9763;SDS011;4921;43.214;27.936;2022-09-29T18:02:45;18.53;;;12.60;;
9763;SDS011;4921;43.214;27.936;2022-09-29T18:05:12;23.83;;;13.93;;
9763;SDS011;4921;43.214;27.936;2022-09-29T18:07:40;22.40;;;12.80;;
9763;SDS011;4921;43.214;27.936;2022-09-29T18:10:17;21.40;;;13.60;;
9763;SDS011;4921;43.214;27.936;2022-09-29T18:12:50;24.07;;;12.60;;
9763;SDS011;4921;43.214;27.936;2022-09-29T18:15:17;17.50;;;12.03;;